createdAt,value
2023-05-12T00:02:24.230Z,7.60
2023-05-12T00:04:51.514Z,8.40
2023-05-12T00:07:18.746Z,6.18
2023-05-12T00:09:45.928Z,5.47
2023-05-12T00:12:13.152Z,6.45
2023-05-12T00:14:40.697Z,6.95
2023-05-12T00:17:07.981Z,7.00
2023-05-12T00:19:36.366Z,8.18
2023-05-12T00:22:03.608Z,8.02
2023-05-12T00:24:30.801Z,7.70
2023-05-12T00:26:58.021Z,6.88
2023-05-12T00:29:25.377Z,10.18
2023-05-12T00:31:54.821Z,8.27
2023-05-12T00:34:22.089Z,7.55
2023-05-12T00:36:49.303Z,8.10
2023-05-12T00:39:16.469Z,9.38
2023-05-12T00:41:44.435Z,7.78
2023-05-12T00:44:11.692Z,8.05
2023-05-12T00:46:39.183Z,7.97
2023-05-12T00:49:06.696Z,9.60
2023-05-12T00:51:34.077Z,8.52
2023-05-12T00:54:02.625Z,6.85
2023-05-12T00:56:29.910Z,8.38
2023-05-12T00:58:57.229Z,8.38
2023-05-12T01:01:24.653Z,8.20
2023-05-12T01:03:54.350Z,8.73
2023-05-12T01:06:48.534Z,8.15
2023-05-12T01:09:17.378Z,7.88
2023-05-12T01:11:45.157Z,7.82
2023-05-12T01:14:12.584Z,6.50
2023-05-12T01:16:45.966Z,5.78
2023-05-12T01:19:36.693Z,8.43
2023-05-12T01:22:04.695Z,5.78
2023-05-12T01:24:34.269Z,4.88
2023-05-12T01:27:02.734Z,8.80
2023-05-12T01:29:30.532Z,7.40
2023-05-12T01:31:58.437Z,8.00
2023-05-12T01:34:30.877Z,7.78
2023-05-12T01:36:58.116Z,5.30
2023-05-12T01:39:25.362Z,7.93
2023-05-12T01:41:52.578Z,8.45
2023-05-12T01:44:21.305Z,5.95
2023-05-12T01:46:49.581Z,6.10
2023-05-12T01:49:16.947Z,6.03
2023-05-12T01:51:44.202Z,6.97
2023-05-12T01:54:11.472Z,8.00
2023-05-12T01:56:39.351Z,6.75
2023-05-12T01:59:06.780Z,9.57
2023-05-12T02:01:34.196Z,8.52
2023-05-12T02:04:03.851Z,10.47
2023-05-12T02:06:32.549Z,8.35
2023-05-12T02:08:59.812Z,7.15
2023-05-12T02:11:27.057Z,6.18
2023-05-12T02:13:54.712Z,8.50
2023-05-12T02:16:22.716Z,6.53
2023-05-12T02:18:50.065Z,7.57
2023-05-12T02:21:17.382Z,8.27
2023-05-12T02:23:44.707Z,7.43
2023-05-12T02:26:12.848Z,7.53
2023-05-12T02:28:40.098Z,7.50
2023-05-12T02:31:07.467Z,10.45
2023-05-12T02:33:35.392Z,10.75
2023-05-12T02:36:02.975Z,10.07
2023-05-12T02:38:30.211Z,9.48
2023-05-12T02:40:57.518Z,8.43
2023-05-12T02:43:25.360Z,8.40
2023-05-12T02:45:54.725Z,6.45
2023-05-12T02:48:21.953Z,8.07
2023-05-12T02:50:49.175Z,6.75
2023-05-12T02:53:16.544Z,6.53
2023-05-12T02:55:43.819Z,6.05
2023-05-12T02:58:11.146Z,6.65
2023-05-12T03:00:38.417Z,6.50
2023-05-12T03:03:06.127Z,6.35
2023-05-12T03:05:33.448Z,5.47
2023-05-12T03:08:00.817Z,6.90
2023-05-12T03:10:28.150Z,6.25
2023-05-12T03:12:55.352Z,6.85
2023-05-12T03:15:22.566Z,6.70
2023-05-12T03:17:49.865Z,8.03
2023-05-12T03:20:19.035Z,10.02
2023-05-12T03:22:46.467Z,9.93
2023-05-12T03:25:14.430Z,11.95
2023-05-12T03:27:41.709Z,11.80
2023-05-12T03:30:09.689Z,13.27
2023-05-12T03:32:39.343Z,12.63
2023-05-12T03:35:09.506Z,11.95
2023-05-12T03:37:37.382Z,11.38
2023-05-12T03:40:06.217Z,13.68
2023-05-12T03:42:33.407Z,16.30
2023-05-12T03:45:00.637Z,13.90
2023-05-12T03:47:29.182Z,16.98
2023-05-12T03:49:57.393Z,18.50
2023-05-12T03:52:27.302Z,25.02
2023-05-12T03:54:54.547Z,25.47
2023-05-12T03:57:21.734Z,22.27
2023-05-12T03:59:48.924Z,29.15
2023-05-12T04:02:16.217Z,32.63
2023-05-12T04:04:43.835Z,29.33
2023-05-12T04:07:11.534Z,26.30
2023-05-12T04:09:38.770Z,35.97
2023-05-12T04:12:06.510Z,33.30
2023-05-12T04:14:42.404Z,33.78
2023-05-12T04:17:11.017Z,38.08
2023-05-12T04:19:38.172Z,43.80
2023-05-12T04:22:05.540Z,39.03
2023-05-12T04:24:32.750Z,42.25
2023-05-12T04:27:00.501Z,42.55
2023-05-12T04:29:27.776Z,42.42
2023-05-12T04:31:56.138Z,41.63
2023-05-12T04:34:23.497Z,42.75
2023-05-12T04:36:51.558Z,37.50
2023-05-12T04:39:19.602Z,39.67
2023-05-12T04:41:46.878Z,41.55
2023-05-12T04:44:14.405Z,35.27
2023-05-12T04:46:41.782Z,44.85
2023-05-12T04:49:08.963Z,30.10
2023-05-12T04:51:41.991Z,45.85
2023-05-12T04:54:10.467Z,43.03
2023-05-12T04:56:37.979Z,42.93
2023-05-12T04:59:06.220Z,38.92
2023-05-12T05:01:33.487Z,40.30
2023-05-12T05:04:01.028Z,40.70
2023-05-12T05:06:28.889Z,41.17
2023-05-12T05:08:56.209Z,42.93
2023-05-12T05:11:23.928Z,39.10
2023-05-12T05:13:51.704Z,39.13
2023-05-12T05:16:19.023Z,37.70
2023-05-12T05:18:46.851Z,35.20
2023-05-12T05:21:14.618Z,36.15
2023-05-12T05:23:42.696Z,36.60
2023-05-12T05:26:10.477Z,38.78
2023-05-12T05:28:39.916Z,36.00
2023-05-12T05:31:07.780Z,38.40
2023-05-12T05:33:35.403Z,36.77
2023-05-12T05:36:03.456Z,40.42
2023-05-12T05:38:32.410Z,36.47
2023-05-12T05:40:59.592Z,37.40
2023-05-12T05:43:28.165Z,40.17
2023-05-12T05:45:57.057Z,39.23
2023-05-12T05:48:25.435Z,38.78
2023-05-12T05:50:53.791Z,39.50
2023-05-12T05:53:22.961Z,39.53
2023-05-12T05:55:50.352Z,38.33
2023-05-12T05:58:17.563Z,39.33
2023-05-12T06:00:46.441Z,44.28
2023-05-12T06:03:13.867Z,37.03
2023-05-12T06:05:43.031Z,35.88
2023-05-12T06:08:13.253Z,41.53
2023-05-12T06:10:41.179Z,37.53
2023-05-12T06:13:08.476Z,37.05
2023-05-12T06:15:36.002Z,34.97
2023-05-12T06:18:03.360Z,37.38
2023-05-12T06:20:32.194Z,34.55
2023-05-12T06:22:59.453Z,30.27
2023-05-12T06:25:26.958Z,33.42
2023-05-12T06:27:54.167Z,32.00
2023-05-12T06:30:21.530Z,31.02
2023-05-12T06:32:49.034Z,34.35
2023-05-12T06:35:16.885Z,32.10
2023-05-12T06:37:49.316Z,26.90
2023-05-12T06:40:17.184Z,32.38
2023-05-12T06:42:44.968Z,33.25
2023-05-12T06:45:20.021Z,35.00
2023-05-12T06:47:47.567Z,28.80
2023-05-12T06:50:16.876Z,33.45
2023-05-12T06:52:44.724Z,28.55
2023-05-12T06:55:11.976Z,28.15
2023-05-12T06:57:39.220Z,28.92
2023-05-12T07:00:07.554Z,29.77
2023-05-12T07:02:34.973Z,33.55
2023-05-12T07:05:02.188Z,28.88
2023-05-12T07:07:29.389Z,31.38
2023-05-12T07:09:57.080Z,29.35
2023-05-12T07:12:24.355Z,29.67
2023-05-12T07:14:51.582Z,30.90
2023-05-12T07:17:18.735Z,30.73
2023-05-12T07:19:45.920Z,29.48
2023-05-12T07:22:13.692Z,31.13
2023-05-12T07:24:41.560Z,33.65
2023-05-12T07:27:08.915Z,29.80
2023-05-12T07:29:36.110Z,29.45
2023-05-12T07:32:03.522Z,31.70
2023-05-12T07:34:33.044Z,31.75
2023-05-12T07:37:04.021Z,30.90
2023-05-12T07:39:32.305Z,31.45
2023-05-12T07:41:59.567Z,29.73
2023-05-12T07:44:27.939Z,32.17
2023-05-12T07:46:55.317Z,31.27
2023-05-12T07:49:23.258Z,28.25
2023-05-12T07:51:50.615Z,31.23
2023-05-12T07:54:17.812Z,29.27
2023-05-12T07:56:45.097Z,33.67
2023-05-12T07:59:14.206Z,29.33
2023-05-12T08:01:41.792Z,29.23
2023-05-12T08:04:09.482Z,27.08
2023-05-12T08:06:36.758Z,24.73
2023-05-12T08:09:04.094Z,26.75
2023-05-12T08:11:31.445Z,29.55
2023-05-12T08:13:58.644Z,29.00
2023-05-12T08:16:26.045Z,30.45
2023-05-12T08:18:53.381Z,27.80
2023-05-12T08:21:20.984Z,27.67
2023-05-12T08:23:48.224Z,28.15
2023-05-12T08:26:15.590Z,27.50
2023-05-12T08:28:42.796Z,30.50
2023-05-12T08:31:10.164Z,32.00
2023-05-12T08:33:37.443Z,28.08
2023-05-12T08:36:04.928Z,28.50
2023-05-12T08:38:32.741Z,26.83
2023-05-12T08:41:16.242Z,29.25
2023-05-12T08:43:50.696Z,25.98
2023-05-12T08:46:18.265Z,30.30
2023-05-12T08:48:46.906Z,30.23
2023-05-12T08:51:14.487Z,30.23
2023-05-12T08:53:42.574Z,30.73
2023-05-12T08:58:46.007Z,30.30
2023-05-12T09:01:14.761Z,27.35
2023-05-12T09:03:43.332Z,27.83
2023-05-12T09:06:11.590Z,26.58
2023-05-12T09:08:40.412Z,27.15
2023-05-12T09:11:12.137Z,26.20
2023-05-12T09:13:55.338Z,28.23
2023-05-12T09:16:25.151Z,28.20
2023-05-12T09:18:57.251Z,25.73
2023-05-12T09:21:26.468Z,27.02
2023-05-12T09:24:01.331Z,24.83
2023-05-12T09:26:28.930Z,29.23
2023-05-12T09:29:08.127Z,28.10
2023-05-12T09:31:35.836Z,27.33
2023-05-12T09:34:08.076Z,29.38
2023-05-12T09:36:35.880Z,25.90
2023-05-12T09:39:08.073Z,27.50
2023-05-12T09:41:39.370Z,27.52
2023-05-12T09:44:08.471Z,25.98
2023-05-12T09:46:36.842Z,29.88
2023-05-12T09:49:04.021Z,26.30
2023-05-12T09:51:31.424Z,27.42
2023-05-12T09:53:58.776Z,24.85
2023-05-12T09:56:29.440Z,27.65
2023-05-12T09:58:57.470Z,24.58
2023-05-12T10:01:25.742Z,27.75
2023-05-12T10:03:57.355Z,26.45
2023-05-12T10:06:28.108Z,28.40
2023-05-12T10:09:19.786Z,25.83
2023-05-12T10:11:53.760Z,25.98
2023-05-12T10:14:22.870Z,25.42
2023-05-12T10:16:51.164Z,25.40
2023-05-12T10:19:20.057Z,27.92
2023-05-12T10:21:50.993Z,29.00
2023-05-12T10:24:18.467Z,27.10
2023-05-12T10:26:45.676Z,26.98
2023-05-12T10:29:13.619Z,27.00
2023-05-12T10:31:41.286Z,24.45
2023-05-12T10:34:18.056Z,25.37
2023-05-12T10:36:50.146Z,26.35
2023-05-12T10:39:17.540Z,24.60
2023-05-12T10:41:44.750Z,25.17
2023-05-12T10:44:12.189Z,25.83
2023-05-12T10:46:39.559Z,21.47
2023-05-12T10:49:06.783Z,21.05
2023-05-12T10:51:35.013Z,22.83
2023-05-12T10:54:07.672Z,23.80
2023-05-12T10:56:40.973Z,25.42
2023-05-12T10:59:17.726Z,22.17
2023-05-12T11:02:03.660Z,22.88
2023-05-12T11:04:46.354Z,21.67
2023-05-12T11:07:16.501Z,23.73
2023-05-12T11:09:55.418Z,23.52
2023-05-12T11:12:26.752Z,23.60
2023-05-12T11:14:54.437Z,19.73
2023-05-12T11:17:24.518Z,21.33
2023-05-12T11:19:52.665Z,19.38
2023-05-12T11:22:21.865Z,19.92
2023-05-12T11:24:50.571Z,21.50
2023-05-12T11:27:19.850Z,21.85
2023-05-12T11:29:57.730Z,18.92
2023-05-12T11:32:25.003Z,21.70
2023-05-12T11:34:52.672Z,22.50
2023-05-12T11:37:21.246Z,19.83
2023-05-12T11:39:48.699Z,20.52
2023-05-12T11:42:19.840Z,21.35
2023-05-12T11:44:49.879Z,22.23
2023-05-12T11:47:19.275Z,20.08
2023-05-12T11:49:54.903Z,21.00
2023-05-12T11:52:24.058Z,22.60
2023-05-12T11:54:54.649Z,20.27
2023-05-12T11:57:29.449Z,23.48
2023-05-12T11:59:58.441Z,21.45
2023-05-12T12:02:26.032Z,20.83
2023-05-12T12:04:53.597Z,19.73
2023-05-12T12:07:31.746Z,21.77
2023-05-12T12:10:10.081Z,22.35
2023-05-12T12:12:37.265Z,20.95
2023-05-12T12:15:05.226Z,21.50
2023-05-12T12:17:32.824Z,21.42
2023-05-12T12:20:02.708Z,20.00
2023-05-12T12:22:34.065Z,20.98
2023-05-12T12:25:02.329Z,21.10
2023-05-12T12:27:29.776Z,21.47
2023-05-12T12:29:56.980Z,22.25
2023-05-12T12:32:24.328Z,19.92
2023-05-12T12:34:51.949Z,19.17
2023-05-12T12:37:19.147Z,19.58
2023-05-12T12:39:47.687Z,16.83
2023-05-12T12:42:15.608Z,18.02
2023-05-12T12:44:43.871Z,16.08
2023-05-12T12:47:11.446Z,19.15
2023-05-12T12:49:38.880Z,15.38
2023-05-12T12:52:06.465Z,15.80
2023-05-12T12:54:33.990Z,15.98
2023-05-12T12:57:01.412Z,16.02
2023-05-12T12:59:28.652Z,16.70
2023-05-12T13:01:59.887Z,13.18
2023-05-12T13:04:27.258Z,15.87
2023-05-12T13:06:54.494Z,14.05
2023-05-12T13:09:22.968Z,15.05
2023-05-12T13:11:50.423Z,14.40
2023-05-12T13:14:17.737Z,13.90
2023-05-12T13:16:45.831Z,15.50
2023-05-12T13:19:13.667Z,12.68
2023-05-12T13:21:40.890Z,15.20
2023-05-12T13:24:08.365Z,13.07
2023-05-12T13:26:35.763Z,11.88
2023-05-12T13:29:04.194Z,11.47
2023-05-12T13:31:31.423Z,10.20
2023-05-12T13:33:58.663Z,12.18
2023-05-12T13:36:26.793Z,11.55
2023-05-12T13:38:53.968Z,11.80
2023-05-12T13:41:21.153Z,12.03
2023-05-12T13:43:48.414Z,15.15
2023-05-12T13:46:15.913Z,13.65
2023-05-12T13:48:43.176Z,13.43
2023-05-12T13:51:10.581Z,12.23
2023-05-12T13:53:39.491Z,9.67
2023-05-12T13:56:16.498Z,10.05
2023-05-12T13:58:44.558Z,10.10
2023-05-12T14:01:12.183Z,11.63
2023-05-12T14:03:40.419Z,8.68
2023-05-12T14:06:07.975Z,8.77
2023-05-12T14:08:35.202Z,9.10
2023-05-12T14:11:02.442Z,8.30
2023-05-12T14:13:29.703Z,8.63
2023-05-12T14:15:57.403Z,8.88
2023-05-12T14:18:25.079Z,7.83
2023-05-12T14:20:52.816Z,9.05
2023-05-12T14:23:20.104Z,9.25
2023-05-12T14:25:47.348Z,10.35
2023-05-12T14:28:14.681Z,9.40
2023-05-12T14:30:43.383Z,8.57
2023-05-12T14:33:11.349Z,11.70
2023-05-12T14:35:38.630Z,10.68
2023-05-12T14:38:05.937Z,9.00
2023-05-12T14:40:33.198Z,11.68
2023-05-12T14:43:00.904Z,11.13
2023-05-12T14:45:28.764Z,9.98
2023-05-12T14:47:56.170Z,11.93
2023-05-12T14:50:24.053Z,11.45
2023-05-12T14:52:51.353Z,10.73
2023-05-12T14:55:18.736Z,11.17
2023-05-12T14:57:47.209Z,10.48
2023-05-12T15:00:15.978Z,9.80
2023-05-12T15:02:44.904Z,9.60
2023-05-12T15:05:15.454Z,10.52
2023-05-12T15:07:42.705Z,11.20
2023-05-12T15:10:10.670Z,12.32
2023-05-12T15:12:38.036Z,12.75
2023-05-12T15:15:08.455Z,13.93
2023-05-12T15:17:35.850Z,10.48
2023-05-12T15:20:03.911Z,11.30
2023-05-12T15:22:32.171Z,10.88
2023-05-12T15:24:59.810Z,10.48
2023-05-12T15:27:27.492Z,11.95
2023-05-12T15:29:54.712Z,10.95
2023-05-12T15:32:22.126Z,10.80
2023-05-12T15:34:51.916Z,10.30
2023-05-12T15:37:19.142Z,9.30
2023-05-12T15:39:46.431Z,9.80
2023-05-12T15:42:14.683Z,9.23
2023-05-12T15:44:46.734Z,9.80
2023-05-12T15:47:14.123Z,10.15
2023-05-12T15:49:41.365Z,9.32
2023-05-12T15:52:11.395Z,10.02
2023-05-12T15:54:39.081Z,9.10
2023-05-12T15:57:07.065Z,10.57
2023-05-12T15:59:34.649Z,9.15
2023-05-12T16:02:01.950Z,10.40
2023-05-12T16:04:30.191Z,9.85
2023-05-12T16:06:57.391Z,10.77
2023-05-12T16:09:24.767Z,10.93
2023-05-12T16:11:53.074Z,11.88
2023-05-12T16:14:21.880Z,11.10
2023-05-12T16:16:50.209Z,11.85
2023-05-12T16:19:18.171Z,13.38
2023-05-12T16:21:45.551Z,11.50
2023-05-12T16:24:12.935Z,10.75
2023-05-12T16:26:41.171Z,12.55
2023-05-12T16:29:08.430Z,11.48
2023-05-12T16:31:36.420Z,14.38
2023-05-12T16:34:03.611Z,16.87
2023-05-12T16:36:31.990Z,13.95
2023-05-12T16:38:59.603Z,13.20
2023-05-12T16:41:28.693Z,9.68
2023-05-12T16:43:56.388Z,11.10
2023-05-12T16:46:24.321Z,14.83
2023-05-12T16:48:51.652Z,14.10
2023-05-12T16:51:19.026Z,14.15
2023-05-12T16:53:46.323Z,15.90
2023-05-12T16:56:13.544Z,14.45
2023-05-12T16:58:40.978Z,15.20
2023-05-12T17:01:09.347Z,17.08
2023-05-12T17:03:36.971Z,15.95
2023-05-12T17:06:04.414Z,17.38
2023-05-12T17:08:31.809Z,23.52
2023-05-12T17:11:01.437Z,32.05
2023-05-12T17:13:28.727Z,17.45
2023-05-12T17:15:56.302Z,18.85
2023-05-12T17:18:24.823Z,18.40
2023-05-12T17:20:52.211Z,18.25
2023-05-12T17:23:22.253Z,18.00
2023-05-12T17:25:49.597Z,28.08
2023-05-12T17:28:16.771Z,22.77
2023-05-12T17:30:43.980Z,17.70
2023-05-12T17:33:11.401Z,15.88
2023-05-12T17:35:38.733Z,16.95
2023-05-12T17:38:05.956Z,14.88
2023-05-12T17:40:33.469Z,18.08
2023-05-12T17:43:00.692Z,18.75
2023-05-12T17:45:28.215Z,18.85
2023-05-12T17:47:55.536Z,13.98
2023-05-12T17:50:22.859Z,13.32
2023-05-12T17:52:50.128Z,16.48
2023-05-12T17:55:17.500Z,16.02
2023-05-12T17:57:44.796Z,12.52
2023-05-12T18:00:12.691Z,13.07
2023-05-12T18:02:43.001Z,15.65
2023-05-12T18:05:10.670Z,11.85
2023-05-12T18:07:37.899Z,15.18
2023-05-12T18:10:09.386Z,12.02
2023-05-12T18:12:37.691Z,12.55
2023-05-12T18:15:06.347Z,12.30
2023-05-12T18:17:33.769Z,12.73
2023-05-12T18:20:01.101Z,11.75
2023-05-12T18:22:28.267Z,11.82
2023-05-12T18:24:55.905Z,13.57
2023-05-12T18:27:23.146Z,10.05
2023-05-12T18:29:50.430Z,10.48
2023-05-12T18:32:17.599Z,12.07
2023-05-12T18:34:46.427Z,12.02
2023-05-12T18:37:15.526Z,10.23
2023-05-12T18:39:43.206Z,10.05
2023-05-12T18:42:11.241Z,14.48
2023-05-12T18:44:41.123Z,12.73
2023-05-12T18:47:08.960Z,10.48
2023-05-12T18:49:37.472Z,9.60
2023-05-12T18:52:04.966Z,11.73
2023-05-12T18:54:32.199Z,10.73
2023-05-12T18:56:59.464Z,11.43
2023-05-12T18:59:26.817Z,15.05
2023-05-12T19:01:54.001Z,14.02
2023-05-12T19:04:21.981Z,12.32
2023-05-12T19:06:49.415Z,14.18
2023-05-12T19:09:16.837Z,11.20
2023-05-12T19:11:44.329Z,12.15
2023-05-12T19:14:11.946Z,15.68
2023-05-12T19:16:39.842Z,10.57
2023-05-12T19:19:07.398Z,12.70
2023-05-12T19:21:34.926Z,11.20
2023-05-12T19:24:02.229Z,10.93
2023-05-12T19:26:29.667Z,13.02
2023-05-12T19:28:57.068Z,12.32
2023-05-12T19:31:24.371Z,12.98
2023-05-12T19:33:52.266Z,14.40
2023-05-12T19:36:19.616Z,11.00
2023-05-12T19:38:46.970Z,12.13
2023-05-12T19:41:14.248Z,12.70
2023-05-12T19:43:41.605Z,11.48
2023-05-12T19:46:08.945Z,11.05
2023-05-12T19:48:36.280Z,11.50
2023-05-12T19:51:03.761Z,12.43
2023-05-12T19:53:31.107Z,11.80
2023-05-12T19:56:00.651Z,11.93
2023-05-12T19:58:28.049Z,12.07
2023-05-12T20:00:55.839Z,13.00
2023-05-12T20:03:23.453Z,12.48
2023-05-12T20:05:50.898Z,11.15
2023-05-12T20:08:18.150Z,12.80
2023-05-12T20:10:46.124Z,14.25
2023-05-12T20:13:13.465Z,13.65
2023-05-12T20:15:42.298Z,13.60
2023-05-12T20:18:11.211Z,14.27
2023-05-12T20:20:38.570Z,14.57
2023-05-12T20:23:05.854Z,19.58
2023-05-12T20:25:33.244Z,16.08
2023-05-12T20:28:00.588Z,18.17
2023-05-12T20:30:28.134Z,15.68
2023-05-12T20:32:55.671Z,14.93
2023-05-12T20:35:23.389Z,18.67
2023-05-12T20:37:51.234Z,14.65
2023-05-12T20:40:19.707Z,19.10
2023-05-12T20:42:47.822Z,18.15
2023-05-12T20:45:15.968Z,16.92
2023-05-12T20:47:43.199Z,20.25
2023-05-12T20:50:12.504Z,15.93
2023-05-12T20:52:40.914Z,22.38
2023-05-12T20:55:09.626Z,20.80
2023-05-12T20:57:37.761Z,18.88
2023-05-12T21:00:07.465Z,19.95
2023-05-12T21:02:34.704Z,19.20
2023-05-12T21:05:02.349Z,17.02
2023-05-12T21:07:33.274Z,18.05
2023-05-12T21:10:00.805Z,18.75
2023-05-12T21:12:28.121Z,18.55
2023-05-12T21:14:55.642Z,19.73
2023-05-12T21:17:22.896Z,17.92
2023-05-12T21:19:50.119Z,15.00
2023-05-12T21:22:17.626Z,14.93
2023-05-12T21:24:44.880Z,15.95
2023-05-12T21:27:12.096Z,20.20
2023-05-12T21:29:39.289Z,14.55
2023-05-12T21:32:07.012Z,15.48
2023-05-12T21:34:35.762Z,16.65
2023-05-12T21:37:03.073Z,16.17
2023-05-12T21:39:30.369Z,15.23
2023-05-12T21:41:57.565Z,15.60
2023-05-12T21:44:24.794Z,15.98
2023-05-12T21:46:52.042Z,18.88
2023-05-12T21:49:19.279Z,11.88
2023-05-12T21:51:46.630Z,14.48
2023-05-12T21:54:13.841Z,13.95
2023-05-12T21:56:41.000Z,14.43
2023-05-12T21:59:08.209Z,14.60
2023-05-12T22:01:35.450Z,15.02
2023-05-12T22:04:02.909Z,15.63
2023-05-12T22:06:30.223Z,16.15
2023-05-12T22:08:57.506Z,15.63
2023-05-12T22:11:24.951Z,13.40
2023-05-12T22:13:52.183Z,11.75
2023-05-12T22:16:23.630Z,12.88
2023-05-12T22:18:55.989Z,9.13
2023-05-12T22:21:23.363Z,13.98
2023-05-12T22:23:50.662Z,11.98
2023-05-12T22:26:17.830Z,11.88
2023-05-12T22:28:45.023Z,10.40
2023-05-12T22:31:12.276Z,9.73
2023-05-12T22:33:42.195Z,10.68
2023-05-12T22:36:09.784Z,9.65
2023-05-12T22:38:36.959Z,11.63
2023-05-12T22:41:04.168Z,11.73
2023-05-12T22:43:31.382Z,11.05
2023-05-12T22:45:58.762Z,10.38
2023-05-12T22:48:26.739Z,12.93
2023-05-12T22:50:54.704Z,11.48
2023-05-12T22:53:22.026Z,9.77
2023-05-12T22:55:49.251Z,14.38
2023-05-12T22:58:16.498Z,8.68
2023-05-12T23:00:43.703Z,8.50
2023-05-12T23:03:11.351Z,10.25
2023-05-12T23:05:38.572Z,10.52
2023-05-12T23:08:05.924Z,10.57
2023-05-12T23:10:33.196Z,9.57
2023-05-12T23:13:00.358Z,9.52
2023-05-12T23:15:27.585Z,9.23
2023-05-12T23:17:54.791Z,6.93
2023-05-12T23:20:22.277Z,12.40
2023-05-12T23:22:49.663Z,8.10
2023-05-12T23:25:16.957Z,11.88
2023-05-12T23:27:44.160Z,7.82
2023-05-12T23:30:11.769Z,12.15
2023-05-12T23:32:39.173Z,8.32
2023-05-12T23:35:07.886Z,8.02
2023-05-12T23:37:35.097Z,8.55
2023-05-12T23:40:02.378Z,6.53
2023-05-12T23:42:29.797Z,9.23
2023-05-12T23:44:57.052Z,9.20
2023-05-12T23:47:24.288Z,8.75
2023-05-12T23:49:51.564Z,7.70
2023-05-12T23:52:18.723Z,12.48
2023-05-12T23:54:45.984Z,9.25
2023-05-12T23:57:13.215Z,12.15
2023-05-12T23:59:40.681Z,11.52
